Archival Weather

Heathrow

London, United Kingdom (EGLL)

Report from: Sunday, March 19, 2023 1:50 PM GMT
Current time: Tuesday, February 27, 2024 10:37 AM GMT

Current weather – Weather history – Daily summaries
Weather forecast

Temperature10.0°C (50.0°F)
Wind chill8.2°C (46.7°F)
Dew point4.0°C (39.2°F)
Winds 7 kts (3.6 m/s, 8.1 mph) Vrb
Winds variableWinds variable from West-Southwest (240°) to West-Northwest (300°)
Visibility6.2 mi. (10 km)
Clouds Ceiling: Broken clouds 3,000 ft. (914 m)
Overcast 4,000 ft. (1,219 m)
Altimeter30.03 in.Hg (1017 mB)
Relative humidity66 %
Density altitude-605 ft. (-184 m)
Remarks Fully automated report
No significant changes expected in the next two hours
Flight conditions Visual Meteorological Conditions
Raw dataEGLL 191350Z AUTO 26007KT 240V300 9999 BKN030 OVC040 10/04 Q1017 NOSIG
An error has occurred. This application may no longer respond until reloaded. Reload 🗙